createdAt,value
2019-05-28T00:00:03.149Z,5.47
2019-05-28T00:02:30.814Z,7.17
2019-05-28T00:04:57.584Z,4.83
2019-05-28T00:07:24.216Z,6.70
2019-05-28T00:09:50.785Z,7.97
2019-05-28T00:12:18.549Z,7.80
2019-05-28T00:14:45.102Z,4.30
2019-05-28T00:17:11.678Z,5.90
2019-05-28T00:19:38.204Z,4.83
2019-05-28T00:22:04.776Z,7.73
2019-05-28T00:24:31.311Z,7.53
2019-05-28T00:26:57.964Z,7.90
2019-05-28T00:29:24.509Z,6.93
2019-05-28T00:31:51.086Z,5.23
2019-05-28T00:34:17.731Z,8.57
2019-05-28T00:36:44.394Z,8.40
2019-05-28T00:39:10.906Z,5.90
2019-05-28T00:41:37.477Z,6.80
2019-05-28T00:44:04.007Z,6.33
2019-05-28T00:46:30.679Z,6.53
2019-05-28T00:48:57.376Z,6.43
2019-05-28T00:51:24.014Z,6.40
2019-05-28T00:53:50.654Z,5.53
2019-05-28T00:56:17.713Z,6.47
2019-05-28T00:58:45.762Z,6.80
2019-05-28T01:01:13.308Z,6.57
2019-05-28T01:03:39.961Z,7.30
2019-05-28T01:06:08.236Z,6.80
2019-05-28T01:08:34.874Z,9.30
2019-05-28T01:11:01.434Z,6.17
2019-05-28T01:13:29.679Z,5.90
2019-05-28T01:15:56.437Z,4.90
2019-05-28T01:18:23.015Z,5.80
2019-05-28T01:20:50.835Z,4.47
2019-05-28T01:23:17.503Z,5.03
2019-05-28T01:25:44.838Z,7.93
2019-05-28T01:28:11.700Z,5.13
2019-05-28T01:30:53.784Z,6.37
2019-05-28T01:33:06.998Z,6.47
2019-05-28T01:35:33.743Z,5.93
2019-05-28T01:38:00.512Z,5.30
2019-05-28T01:40:27.130Z,5.90
2019-05-28T01:42:53.692Z,5.27
2019-05-28T01:45:20.342Z,6.43
2019-05-28T01:47:46.908Z,5.23
2019-05-28T01:50:13.980Z,10.23
2019-05-28T01:52:40.620Z,5.40
2019-05-28T01:55:07.658Z,7.73
2019-05-28T01:57:34.212Z,4.97
2019-05-28T02:00:00.745Z,6.50
2019-05-28T02:02:27.319Z,5.53
2019-05-28T02:04:54.406Z,8.43
2019-05-28T02:07:21.116Z,5.40
2019-05-28T02:09:47.742Z,5.80
2019-05-28T02:12:14.413Z,5.63
2019-05-28T02:14:41.045Z,8.10
2019-05-28T02:17:08.193Z,7.00
2019-05-28T02:19:34.885Z,7.13
2019-05-28T02:22:02.317Z,5.80
2019-05-28T02:24:28.972Z,7.10
2019-05-28T02:26:55.513Z,6.33
2019-05-28T02:29:22.086Z,9.93
2019-05-28T02:31:48.830Z,7.63
2019-05-28T02:34:15.492Z,5.77
2019-05-28T02:36:42.033Z,4.60
2019-05-28T02:39:08.593Z,7.77
2019-05-28T02:41:35.124Z,5.47
2019-05-28T02:44:02.790Z,9.10
2019-05-28T02:46:29.420Z,5.67
2019-05-28T02:48:56.009Z,5.80
2019-05-28T02:51:23.730Z,7.40
2019-05-28T02:53:50.294Z,8.37
2019-05-28T02:56:17.424Z,7.53
2019-05-28T02:58:46.701Z,9.37
2019-05-28T03:01:14.066Z,6.30
2019-05-28T03:03:44.454Z,11.03
2019-05-28T03:06:12.497Z,6.03
2019-05-28T03:08:41.386Z,7.20
2019-05-28T03:11:08.068Z,7.57
2019-05-28T03:13:34.727Z,6.10
2019-05-28T03:16:03.876Z,19.73
2019-05-28T03:18:34.676Z,6.00
2019-05-28T03:21:02.512Z,8.90
2019-05-28T03:23:32.053Z,7.03
2019-05-28T03:25:58.943Z,7.27
2019-05-28T03:28:25.577Z,7.33
2019-05-28T03:30:52.352Z,9.63
2019-05-28T03:33:19.203Z,6.87
2019-05-28T03:35:47.076Z,6.93
2019-05-28T03:38:16.212Z,5.53
2019-05-28T03:40:44.396Z,8.80
2019-05-28T03:43:11.643Z,8.50
2019-05-28T03:45:38.810Z,7.87
2019-05-28T03:48:05.374Z,8.83
2019-05-28T03:50:31.946Z,12.43
2019-05-28T03:52:58.589Z,5.30
2019-05-28T03:55:25.382Z,7.77
2019-05-28T03:57:51.917Z,7.30
2019-05-28T04:00:18.584Z,7.67
2019-05-28T04:02:46.991Z,6.50
2019-05-28T04:05:13.650Z,7.20
2019-05-28T04:07:40.200Z,7.33
2019-05-28T04:10:06.762Z,8.27
2019-05-28T04:12:33.392Z,7.80
2019-05-28T04:14:59.949Z,6.30
2019-05-28T04:17:26.633Z,7.27
2019-05-28T04:19:53.093Z,6.87
2019-05-28T04:22:19.642Z,5.33
2019-05-28T04:24:46.218Z,6.93
2019-05-28T04:27:12.769Z,7.47
2019-05-28T04:29:41.057Z,6.77
2019-05-28T04:32:07.592Z,6.43
2019-05-28T04:34:34.232Z,4.93
2019-05-28T04:37:01.151Z,5.30
2019-05-28T04:39:28.554Z,6.07
2019-05-28T04:41:55.718Z,5.10
2019-05-28T04:44:24.028Z,6.13
2019-05-28T04:46:50.610Z,4.70
2019-05-28T04:49:17.182Z,6.60
2019-05-28T04:51:43.703Z,5.70
2019-05-28T04:54:10.239Z,7.73
2019-05-28T04:56:36.855Z,5.07
2019-05-28T04:59:04.068Z,4.67
2019-05-28T05:01:30.926Z,6.53
2019-05-28T05:03:57.482Z,6.70
2019-05-28T05:06:24.041Z,6.80
2019-05-28T05:08:50.673Z,6.43
2019-05-28T05:11:17.255Z,5.30
2019-05-28T05:13:43.814Z,6.47
2019-05-28T05:16:10.389Z,8.43
2019-05-28T05:18:37.420Z,6.77
2019-05-28T05:21:04.086Z,9.60
2019-05-28T05:23:30.813Z,10.47
2019-05-28T05:25:57.482Z,6.20
2019-05-28T05:28:24.134Z,7.97
2019-05-28T05:30:50.809Z,7.27
2019-05-28T05:33:20.310Z,5.93
2019-05-28T05:35:45.897Z,5.70
2019-05-28T05:38:12.479Z,6.47
2019-05-28T05:40:39.022Z,4.40
2019-05-28T05:43:05.791Z,3.40
2019-05-28T05:45:32.433Z,8.20
2019-05-28T05:47:59.143Z,4.70
2019-05-28T05:50:25.674Z,3.40
2019-05-28T05:52:52.457Z,7.03
2019-05-28T05:55:19.391Z,5.23
2019-05-28T05:57:46.079Z,6.70
2019-05-28T06:00:13.903Z,5.40
2019-05-28T06:02:40.686Z,5.10
2019-05-28T06:05:07.497Z,4.33
2019-05-28T06:07:34.214Z,5.50
2019-05-28T06:10:00.726Z,5.07
2019-05-28T06:12:27.495Z,3.77
2019-05-28T06:14:54.158Z,4.77
2019-05-28T06:17:21.011Z,4.83
2019-05-28T06:19:47.574Z,3.73
2019-05-28T06:22:14.341Z,5.23
2019-05-28T06:24:40.964Z,4.50
2019-05-28T06:27:08.545Z,3.83
2019-05-28T06:29:35.454Z,4.57
2019-05-28T06:32:02.292Z,4.03
2019-05-28T06:34:28.878Z,3.87
2019-05-28T06:36:55.549Z,2.57
2019-05-28T06:39:22.101Z,5.10
2019-05-28T06:41:48.666Z,5.07
2019-05-28T06:44:15.195Z,5.23
2019-05-28T06:46:41.764Z,3.07
2019-05-28T06:49:08.524Z,6.50
2019-05-28T06:51:35.072Z,5.00
2019-05-28T06:54:01.823Z,3.37
2019-05-28T06:56:28.462Z,4.30
2019-05-28T06:58:55.033Z,5.27
2019-05-28T07:01:21.565Z,4.13
2019-05-28T07:03:48.127Z,3.53
2019-05-28T07:06:14.974Z,3.87
2019-05-28T07:08:41.653Z,5.53
2019-05-28T07:11:08.202Z,4.13
2019-05-28T07:13:34.753Z,6.70
2019-05-28T07:16:01.278Z,4.30
2019-05-28T07:18:29.184Z,3.33
2019-05-28T07:20:55.922Z,3.00
2019-05-28T07:23:22.784Z,9.47
2019-05-28T07:25:49.322Z,4.53
2019-05-28T07:28:16.102Z,6.90
2019-05-28T07:30:42.825Z,5.10
2019-05-28T07:33:09.397Z,3.73
2019-05-28T07:35:45.430Z,2.93
2019-05-28T07:38:04.299Z,3.00
2019-05-28T07:40:32.259Z,2.13
2019-05-28T07:42:59.118Z,4.70
2019-05-28T07:45:25.751Z,1.53
2019-05-28T07:47:52.422Z,4.67
2019-05-28T07:50:19.078Z,8.27
2019-05-28T07:52:45.650Z,3.07
2019-05-28T07:55:12.592Z,3.00
2019-05-28T07:57:39.163Z,2.63
2019-05-28T08:00:07.299Z,2.70
2019-05-28T08:02:33.885Z,3.13
2019-05-28T08:05:00.626Z,1.90
2019-05-28T08:07:27.279Z,3.83
2019-05-28T08:09:53.853Z,2.40
2019-05-28T08:12:20.506Z,5.10
2019-05-28T08:14:47.169Z,3.20
2019-05-28T08:17:13.914Z,2.63
2019-05-28T08:19:41.516Z,3.33
2019-05-28T08:22:08.160Z,2.40
2019-05-28T08:24:35.030Z,2.47
2019-05-28T08:27:01.669Z,3.60
2019-05-28T08:29:29.944Z,2.73
2019-05-28T08:31:56.576Z,3.37
2019-05-28T08:34:23.451Z,3.80
2019-05-28T08:37:04.054Z,2.40
2019-05-28T08:39:18.580Z,1.90
2019-05-28T08:41:45.226Z,2.20
2019-05-28T08:44:12.022Z,1.67
2019-05-28T08:46:38.649Z,1.63
2019-05-28T08:49:05.313Z,2.80
2019-05-28T08:51:31.932Z,2.87
2019-05-28T08:53:58.711Z,4.03
2019-05-28T08:56:25.249Z,1.60
2019-05-28T08:58:51.815Z,1.77
2019-05-28T09:01:18.427Z,2.47
2019-05-28T09:03:45.039Z,4.23
2019-05-28T09:06:11.769Z,1.60
2019-05-28T09:08:40.182Z,1.40
2019-05-28T09:11:07.328Z,2.70
2019-05-28T09:13:34.418Z,2.17
2019-05-28T09:16:01.056Z,1.60
2019-05-28T09:18:27.652Z,2.67
2019-05-28T09:20:54.448Z,2.03
2019-05-28T09:23:20.959Z,1.60
2019-05-28T09:25:47.517Z,2.00
2019-05-28T09:28:29.081Z,1.83
2019-05-28T09:30:42.628Z,1.97
2019-05-28T09:33:09.287Z,2.77
2019-05-28T09:35:44.800Z,1.50
2019-05-28T09:38:05.100Z,2.27
2019-05-28T09:40:48.535Z,2.40
2019-05-28T09:43:00.301Z,1.83
2019-05-28T09:45:27.184Z,2.20
2019-05-28T09:47:55.248Z,3.20
2019-05-28T09:50:30.615Z,1.50
2019-05-28T09:52:54.822Z,2.00
2019-05-28T09:55:20.607Z,1.87
2019-05-28T09:57:48.208Z,1.70
2019-05-28T10:00:19.849Z,1.60
2019-05-28T10:02:46.600Z,1.60
2019-05-28T10:05:13.547Z,1.33
2019-05-28T10:07:40.091Z,1.23
2019-05-28T10:10:07.064Z,2.40
2019-05-28T10:12:33.682Z,1.60
2019-05-28T10:15:00.346Z,2.30
2019-05-28T10:17:28.591Z,2.10
2019-05-28T10:19:55.207Z,1.83
2019-05-28T10:22:21.840Z,3.97
2019-05-28T10:24:49.023Z,1.70
2019-05-28T10:27:16.274Z,5.07
2019-05-28T10:29:42.954Z,2.90
2019-05-28T10:32:09.596Z,4.03
2019-05-28T10:34:36.544Z,1.60
2019-05-28T10:37:03.357Z,4.63
2019-05-28T10:39:30.019Z,2.43
2019-05-28T10:41:56.653Z,1.57
2019-05-28T10:44:23.188Z,1.60
2019-05-28T10:46:49.761Z,1.50
2019-05-28T10:49:16.313Z,2.10
2019-05-28T10:51:42.878Z,2.43
2019-05-28T10:54:09.512Z,2.70
2019-05-28T10:56:36.181Z,3.23
2019-05-28T10:59:05.271Z,2.83
2019-05-28T11:01:32.175Z,3.10
2019-05-28T11:03:58.726Z,4.20
2019-05-28T11:06:25.495Z,1.40
2019-05-28T11:08:52.231Z,3.60
2019-05-28T11:11:18.911Z,3.03
2019-05-28T11:13:52.964Z,3.20
2019-05-28T11:16:13.999Z,2.20
2019-05-28T11:18:40.712Z,1.63
2019-05-28T11:21:09.717Z,3.70
2019-05-28T11:23:36.018Z,3.87
2019-05-28T11:26:04.478Z,2.40
2019-05-28T11:28:31.423Z,4.77
2019-05-28T11:30:58.093Z,4.33
2019-05-28T11:33:24.624Z,2.50
2019-05-28T11:35:51.186Z,4.17
2019-05-28T11:38:17.819Z,3.63
2019-05-28T11:40:44.459Z,3.77
2019-05-28T11:43:11.138Z,3.57
2019-05-28T11:45:37.798Z,6.17
2019-05-28T11:48:04.691Z,2.23
2019-05-28T11:50:32.015Z,2.10
2019-05-28T11:53:00.287Z,2.27
2019-05-28T11:55:27.033Z,2.13
2019-05-28T11:57:53.593Z,2.30
2019-05-28T12:00:21.424Z,3.10
2019-05-28T12:02:48.136Z,1.80
2019-05-28T12:05:15.653Z,4.17
2019-05-28T12:07:42.532Z,2.73
2019-05-28T12:10:10.084Z,3.10
2019-05-28T12:12:38.869Z,4.57
2019-05-28T12:15:08.493Z,4.63
2019-05-28T12:17:42.716Z,2.87
2019-05-28T12:20:07.903Z,3.80
2019-05-28T12:22:34.674Z,2.03
2019-05-28T12:25:04.472Z,3.07
2019-05-28T12:27:31.174Z,1.87
2019-05-28T12:29:57.913Z,3.23
2019-05-28T12:32:24.782Z,2.33
2019-05-28T12:34:51.323Z,3.63
2019-05-28T12:37:18.106Z,3.50
2019-05-28T12:39:44.641Z,4.77
2019-05-28T12:42:11.325Z,2.33
2019-05-28T12:44:42.210Z,3.07
2019-05-28T12:47:06.429Z,4.10
2019-05-28T12:49:33.137Z,2.30
2019-05-28T12:52:00.775Z,3.13
2019-05-28T12:54:29.032Z,3.17
2019-05-28T12:56:56.165Z,4.20
2019-05-28T12:59:22.861Z,4.33
2019-05-28T13:01:49.379Z,3.03
2019-05-28T13:04:15.935Z,3.30
2019-05-28T13:06:42.587Z,3.53
2019-05-28T13:09:09.249Z,4.57
2019-05-28T13:11:35.904Z,3.30
2019-05-28T13:14:02.763Z,5.67
2019-05-28T13:16:29.308Z,3.07
2019-05-28T13:18:55.906Z,2.43
2019-05-28T13:21:22.531Z,5.70
2019-05-28T13:23:49.469Z,3.77
2019-05-28T13:26:16.250Z,4.20
2019-05-28T13:28:42.826Z,2.43
2019-05-28T13:31:09.351Z,2.30
2019-05-28T13:33:36.022Z,1.63
2019-05-28T13:36:02.963Z,2.50
2019-05-28T13:38:31.244Z,2.23
2019-05-28T13:40:57.858Z,6.50
2019-05-28T13:43:24.621Z,2.33
2019-05-28T13:45:51.366Z,3.33
2019-05-28T13:48:18.006Z,2.10
2019-05-28T13:50:44.696Z,2.43
2019-05-28T13:53:11.230Z,5.07
2019-05-28T13:55:37.797Z,5.10
2019-05-28T13:58:04.491Z,4.13
2019-05-28T14:00:31.555Z,3.03
2019-05-28T14:02:58.098Z,4.00
2019-05-28T14:05:24.670Z,3.53
2019-05-28T14:07:51.310Z,2.40
2019-05-28T14:10:19.493Z,3.13
2019-05-28T14:12:46.761Z,4.70
2019-05-28T14:15:14.580Z,2.70
2019-05-28T14:17:41.419Z,5.00
2019-05-28T14:20:10.020Z,2.90
2019-05-28T14:22:36.921Z,2.70
2019-05-28T14:25:05.273Z,3.50
2019-05-28T14:27:31.897Z,2.13
2019-05-28T14:29:58.667Z,2.40
2019-05-28T14:32:25.297Z,4.40
2019-05-28T14:34:52.613Z,2.20
2019-05-28T14:37:19.298Z,3.63
2019-05-28T14:39:45.979Z,3.23
2019-05-28T14:42:12.511Z,3.20
2019-05-28T14:44:42.500Z,4.10
2019-05-28T14:47:07.405Z,2.73
2019-05-28T14:49:34.152Z,1.93
2019-05-28T14:52:00.775Z,3.20
2019-05-28T14:54:27.942Z,1.23
2019-05-28T14:56:54.870Z,2.27
2019-05-28T14:59:21.499Z,2.40
2019-05-28T15:01:48.176Z,3.97
2019-05-28T15:04:14.814Z,2.57
2019-05-28T15:06:41.511Z,2.30
2019-05-28T15:09:20.538Z,3.67
2019-05-28T15:11:36.526Z,2.63
2019-05-28T15:14:04.650Z,2.47
2019-05-28T15:16:31.518Z,2.20
2019-05-28T15:18:58.197Z,4.87
2019-05-28T15:21:24.760Z,2.03
2019-05-28T15:23:51.372Z,2.50
2019-05-28T15:26:17.955Z,4.80
2019-05-28T15:28:44.497Z,3.93
2019-05-28T15:31:11.269Z,4.80
2019-05-28T15:33:38.011Z,2.50
2019-05-28T15:36:04.690Z,2.20
2019-05-28T15:38:31.527Z,1.67
2019-05-28T15:40:58.077Z,2.13
2019-05-28T15:43:24.706Z,2.70
2019-05-28T15:45:51.275Z,2.10
2019-05-28T15:48:18.552Z,3.63
2019-05-28T15:50:45.143Z,4.90
2019-05-28T15:53:11.765Z,1.80
2019-05-28T15:55:38.330Z,7.50
2019-05-28T15:58:05.671Z,2.40
2019-05-28T16:00:32.234Z,2.63
2019-05-28T16:02:58.964Z,2.50
2019-05-28T16:05:25.738Z,2.00
2019-05-28T16:07:52.373Z,2.87
2019-05-28T16:10:20.075Z,2.57
2019-05-28T16:12:46.615Z,2.83
2019-05-28T16:15:13.690Z,2.47
2019-05-28T16:17:40.383Z,3.00
2019-05-28T16:20:07.759Z,2.20
2019-05-28T16:22:34.529Z,1.97
2019-05-28T16:25:01.672Z,2.80
2019-05-28T16:27:28.572Z,3.00
2019-05-28T16:29:55.185Z,4.23
2019-05-28T16:32:27.973Z,3.20
2019-05-28T16:34:50.206Z,2.93
2019-05-28T16:37:16.761Z,4.00
2019-05-28T16:39:43.342Z,3.63
2019-05-28T16:42:10.406Z,2.10
2019-05-28T16:44:36.958Z,3.17
2019-05-28T16:47:16.725Z,2.70
2019-05-28T16:49:32.870Z,2.87
2019-05-28T16:51:59.534Z,1.57
2019-05-28T16:54:26.071Z,3.10
2019-05-28T16:56:53.439Z,2.20
2019-05-28T16:59:20.085Z,3.17
2019-05-28T17:01:48.337Z,2.50
2019-05-28T17:04:14.983Z,2.83
2019-05-28T17:06:41.558Z,3.37
2019-05-28T17:09:08.090Z,2.37
2019-05-28T17:11:34.691Z,1.73
2019-05-28T17:14:01.327Z,3.73
2019-05-28T17:16:27.957Z,2.27
2019-05-28T17:18:54.529Z,2.67
2019-05-28T17:21:23.101Z,3.63
2019-05-28T17:23:49.536Z,2.73
2019-05-28T17:26:16.108Z,2.20
2019-05-28T17:28:42.750Z,2.93
2019-05-28T17:31:09.457Z,3.47
2019-05-28T17:33:35.999Z,2.83
2019-05-28T17:36:02.963Z,2.57
2019-05-28T17:38:29.515Z,3.63
2019-05-28T17:40:56.153Z,2.00
2019-05-28T17:43:22.722Z,2.10
2019-05-28T17:45:49.281Z,3.60
2019-05-28T17:48:16.961Z,1.90
2019-05-28T17:50:43.681Z,2.60
2019-05-28T17:53:11.253Z,2.40
2019-05-28T17:55:37.906Z,2.63
2019-05-28T17:58:05.579Z,4.40
2019-05-28T18:00:32.816Z,3.63
2019-05-28T18:02:59.473Z,4.83
2019-05-28T18:05:26.822Z,1.93
2019-05-28T18:07:53.467Z,2.60
2019-05-28T18:10:20.545Z,3.30
2019-05-28T18:12:47.111Z,3.07
2019-05-28T18:15:14.041Z,3.73
2019-05-28T18:17:40.602Z,2.37
2019-05-28T18:20:08.177Z,2.60
2019-05-28T18:22:34.829Z,3.73
2019-05-28T18:25:01.814Z,2.37
2019-05-28T18:27:28.433Z,3.33
2019-05-28T18:29:55.203Z,3.80
2019-05-28T18:32:21.909Z,3.87
2019-05-28T18:34:48.451Z,4.17
2019-05-28T18:37:15.017Z,4.40
2019-05-28T18:39:41.655Z,2.60
2019-05-28T18:42:08.487Z,1.80
2019-05-28T18:44:35.293Z,2.20
2019-05-28T18:47:01.938Z,2.50
2019-05-28T18:49:28.609Z,1.83
2019-05-28T18:51:55.169Z,2.67
2019-05-28T18:54:21.725Z,2.20
2019-05-28T18:56:49.365Z,2.60
2019-05-28T18:59:16.170Z,2.53
2019-05-28T19:01:42.870Z,2.10
2019-05-28T19:04:09.557Z,3.10
2019-05-28T19:06:36.083Z,1.73
2019-05-28T19:09:06.029Z,2.23
2019-05-28T19:11:37.691Z,3.93
2019-05-28T19:14:01.154Z,1.73
2019-05-28T19:16:27.808Z,3.43
2019-05-28T19:18:55.416Z,2.23
2019-05-28T19:21:22.417Z,1.80
2019-05-28T19:23:49.178Z,1.87
2019-05-28T19:26:15.818Z,3.63
2019-05-28T19:28:43.492Z,2.50
2019-05-28T19:31:10.168Z,3.23
2019-05-28T19:33:37.906Z,1.50
2019-05-28T19:36:04.898Z,1.93
2019-05-28T19:38:44.899Z,2.43
2019-05-28T19:41:00.819Z,2.70
2019-05-28T19:43:29.075Z,2.90
2019-05-28T19:45:55.736Z,2.10
2019-05-28T19:48:23.588Z,2.07
2019-05-28T19:50:50.879Z,1.60
2019-05-28T19:53:17.503Z,2.80
2019-05-28T19:55:44.270Z,2.13
2019-05-28T19:58:10.927Z,1.63
2019-05-28T20:00:37.893Z,2.27
2019-05-28T20:03:04.429Z,2.50
2019-05-28T20:05:32.210Z,2.80
2019-05-28T20:08:00.905Z,2.20
2019-05-28T20:10:27.898Z,3.40
2019-05-28T20:12:54.538Z,2.83
2019-05-28T20:15:22.874Z,2.53
2019-05-28T20:17:50.390Z,2.83
2019-05-28T20:20:17.977Z,2.03
2019-05-28T20:22:46.170Z,2.20
2019-05-28T20:25:13.185Z,2.70
2019-05-28T20:27:39.908Z,5.47
2019-05-28T20:30:09.379Z,3.07
2019-05-28T20:32:36.140Z,4.50
2019-05-28T20:35:07.705Z,4.77
2019-05-28T20:37:34.626Z,3.10
2019-05-28T20:40:02.302Z,2.27
2019-05-28T20:42:30.910Z,2.90
2019-05-28T20:44:57.690Z,3.20
2019-05-28T20:47:24.440Z,2.30
2019-05-28T20:49:51.101Z,2.67
2019-05-28T20:52:19.365Z,3.70
2019-05-28T20:54:46.821Z,4.40
2019-05-28T20:57:13.384Z,3.07
2019-05-28T20:59:40.359Z,2.17
2019-05-28T21:02:07.399Z,2.73
2019-05-28T21:04:33.966Z,2.37
2019-05-28T21:07:00.609Z,2.20
2019-05-28T21:09:27.174Z,5.43
2019-05-28T21:11:54.520Z,2.87
2019-05-28T21:14:21.336Z,2.60
2019-05-28T21:16:48.869Z,2.70
2019-05-28T21:19:15.706Z,1.97
2019-05-28T21:21:42.597Z,3.60
2019-05-28T21:24:09.232Z,2.67
2019-05-28T21:26:36.003Z,2.83
2019-05-28T21:29:02.722Z,3.87
2019-05-28T21:31:29.413Z,2.80
2019-05-28T21:33:57.244Z,3.30
2019-05-28T21:36:23.900Z,1.83
2019-05-28T21:38:51.188Z,1.87
2019-05-28T21:41:19.509Z,2.33
2019-05-28T21:43:46.145Z,1.97
2019-05-28T21:46:12.716Z,3.47
2019-05-28T21:48:39.869Z,2.20
2019-05-28T21:51:09.118Z,2.03
2019-05-28T21:53:35.866Z,4.73
2019-05-28T21:56:03.495Z,2.00
2019-05-28T21:58:30.188Z,2.80
2019-05-28T22:01:01.984Z,1.70
2019-05-28T22:03:29.198Z,1.50
2019-05-28T22:05:57.477Z,2.00
2019-05-28T22:08:25.713Z,3.10
2019-05-28T22:10:52.376Z,2.83
2019-05-28T22:13:22.451Z,1.43
2019-05-28T22:15:47.623Z,1.60
2019-05-28T22:18:14.132Z,3.03
2019-05-28T22:20:40.694Z,2.63
2019-05-28T22:23:07.261Z,2.23
2019-05-28T22:25:33.989Z,2.10
2019-05-28T22:28:00.696Z,1.50
2019-05-28T22:30:27.678Z,1.60
2019-05-28T22:32:54.347Z,2.33
2019-05-28T22:35:21.672Z,3.37
2019-05-28T22:37:49.958Z,2.43
2019-05-28T22:40:18.108Z,2.17
2019-05-28T22:42:44.665Z,1.80
2019-05-28T22:45:11.610Z,2.20
2019-05-28T22:47:38.177Z,2.20
2019-05-28T22:50:19.376Z,2.17
2019-05-28T22:52:37.157Z,2.63
2019-05-28T22:55:06.598Z,2.17
2019-05-28T22:57:33.158Z,2.20
2019-05-28T23:00:00.392Z,2.70
2019-05-28T23:02:27.065Z,1.93
2019-05-28T23:04:53.697Z,1.40
2019-05-28T23:07:20.260Z,1.87
2019-05-28T23:09:46.794Z,2.30
2019-05-28T23:12:15.082Z,1.90
2019-05-28T23:14:43.332Z,1.77
2019-05-28T23:17:10.904Z,2.57
2019-05-28T23:19:37.574Z,2.77
2019-05-28T23:22:05.198Z,4.20
2019-05-28T23:24:33.466Z,2.60
2019-05-28T23:27:01.336Z,2.03
2019-05-28T23:29:28.059Z,1.83
2019-05-28T23:31:54.603Z,2.10
2019-05-28T23:34:21.477Z,3.20
2019-05-28T23:36:48.105Z,1.83
2019-05-28T23:39:14.678Z,4.67
2019-05-28T23:41:42.224Z,2.20
2019-05-28T23:44:09.587Z,2.10
2019-05-28T23:46:36.220Z,1.70
2019-05-28T23:49:04.009Z,1.77
2019-05-28T23:51:30.683Z,2.50
2019-05-28T23:53:57.348Z,3.47
2019-05-28T23:56:23.989Z,2.63
2019-05-28T23:58:50.645Z,3.23
